Time;durP1;ratioP1;P1;durP2;ratioP2;P2;SDS_P1;SDS_P2;PMS_P1;PMS_P2;Temp;Humidity;BMP_temperature;BMP_pressure;BME280_temperature;BME280_humidity;BME280_pressure;Samples;Min_cycle;Max_cycle;Signal;HPM_P1;HPM_P2
2021/01/02 00:01:33;;;;;;;1.75;1.62;;;;;;;0.52;71.53;93025.05;1758872;80;21365;-78
2021/01/02 00:04:33;;;;;;;2.47;1.85;;;;;;;0.48;71.42;93024.94;1788721;80;21193;-81
2021/01/02 00:07:39;;;;;;;3.85;1.92;;;;;;;0.53;71.70;93024.48;1782425;80;21408;-81
2021/01/02 00:10:07;;;;;;;2.05;1.42;;;;;;;0.55;71.81;93022.25;1745611;81;21187;-80
2021/01/02 00:12:48;;;;;;;4.30;2.10;;;;;;;0.53;71.47;93032.50;1738498;82;21187;-81
2021/01/02 00:15:19;;;;;;;2.80;2.00;;;;;;;0.52;71.78;93038.98;1791250;78;21299;-78
2021/01/02 00:18:32;;;;;;;2.60;1.92;;;;;;;0.55;71.61;93028.94;1781413;78;21199;-82
2021/01/02 00:21:26;;;;;;;3.58;2.52;;;;;;;0.56;72.06;93043.87;1788506;79;21167;-78
2021/01/02 00:24:14;;;;;;;3.12;2.72;;;;;;;0.51;72.31;93062.28;1783824;79;21192;-78
2021/01/02 00:26:46;;;;;;;2.67;2.33;;;;;;;0.48;72.68;93058.95;1780439;79;21167;-79
2021/01/02 00:29:24;;;;;;;4.10;2.22;;;;;;;0.49;73.14;93035.11;1765225;80;22209;-79
2021/01/02 00:32:06;;;;;;;2.70;2.10;;;;;;;0.50;73.48;93046.59;1747663;82;21694;-79
2021/01/02 00:35:06;;;;;;;3.27;2.15;;;;;;;0.49;73.23;93045.81;1747454;80;21185;-78
2021/01/02 00:37:40;;;;;;;1.70;1.57;;;;;;;0.54;73.39;93060.84;1770301;80;21203;-80
2021/01/02 00:40:33;;;;;;;2.60;1.70;;;;;;;0.59;73.28;93050.66;1763228;81;21160;-77
2021/01/02 00:43:03;;;;;;;2.92;2.12;;;;;;;0.63;73.26;93070.83;1777791;79;21324;-81
2021/01/02 00:45:33;;;;;;;2.25;1.52;;;;;;;0.63;73.22;93067.58;1806652;78;21214;-82
2021/01/02 00:48:07;;;;;;;2.95;1.65;;;;;;;0.65;73.18;93069.38;1815876;78;21377;-81
2021/01/02 00:50:35;;;;;;;2.80;1.80;;;;;;;0.62;73.17;93062.58;1789583;78;21249;-81
2021/01/02 00:53:07;;;;;;;3.52;2.00;;;;;;;0.61;73.23;93064.48;1773570;79;21685;-82
2021/01/02 00:56:06;;;;;;;3.10;2.22;;;;;;;0.65;73.12;93076.62;1765391;79;21570;-80
2021/01/02 00:59:09;;;;;;;3.20;1.70;;;;;;;0.69;73.14;93075.59;1743055;80;21338;-80
2021/01/02 01:01:48;;;;;;;2.40;1.60;;;;;;;0.68;72.80;93070.59;1768415;80;21270;-80
2021/01/02 01:04:29;;;;;;;2.12;1.82;;;;;;;0.70;72.66;93081.72;1759559;79;21455;-80
2021/01/02 01:07:03;;;;;;;1.90;1.67;;;;;;;0.75;72.54;93082.80;1818110;79;21136;-78
2021/01/02 01:09:37;;;;;;;1.60;1.50;;;;;;;0.75;72.38;93086.82;1790451;78;21926;-76
2021/01/02 01:12:08;;;;;;;3.72;2.33;;;;;;;0.77;72.23;93081.14;1818895;78;21153;-79
2021/01/02 01:14:37;;;;;;;3.17;2.47;;;;;;;0.78;72.48;93082.69;1762857;80;21653;-81
2021/01/02 01:17:05;;;;;;;3.22;2.22;;;;;;;0.77;72.33;93087.84;1757879;79;21160;-82
2021/01/02 01:19:33;;;;;;;2.72;1.95;;;;;;;0.76;72.53;93081.70;1776253;79;21209;-81
2021/01/02 01:22:01;;;;;;;4.00;1.98;;;;;;;0.78;72.42;93085.38;1757658;81;22219;-79
2021/01/02 01:24:52;;;;;;;1.92;1.72;;;;;;;0.78;72.45;93090.16;1770891;79;21178;-77
2021/01/02 01:27:29;;;;;;;1.62;1.52;;;;;;;0.81;72.38;93095.41;1772905;78;21163;-79
2021/01/02 01:30:00;;;;;;;4.55;2.75;;;;;;;0.83;72.50;93093.95;1779259;80;21190;-81
2021/01/02 01:32:29;;;;;;;5.08;2.95;;;;;;;0.82;72.66;93102.30;1771893;80;21163;-77
2021/01/02 01:34:59;;;;;;;3.98;1.98;;;;;;;0.78;72.77;93092.84;1777608;78;21375;-77
2021/01/02 01:37:33;;;;;;;2.42;2.15;;;;;;;0.78;72.92;93099.53;1789653;78;21174;-81
2021/01/02 01:40:04;;;;;;;2.25;1.47;;;;;;;0.80;73.12;93097.87;1779027;80;21520;-79
2021/01/02 01:42:43;;;;;;;1.47;1.32;;;;;;;0.82;73.27;93088.92;1760374;80;21195;-82
2021/01/02 01:45:58;;;;;;;1.60;1.47;;;;;;;0.82;73.12;93090.26;1786659;80;21143;-82
2021/01/02 01:48:27;;;;;;;2.33;1.25;;;;;;;0.82;73.18;93080.89;1769633;80;21356;-77
2021/01/02 01:51:12;;;;;;;1.45;1.35;;;;;;;0.83;73.18;93095.82;1695194;82;21075;-74
2021/01/02 01:54:00;;;;;;;1.67;1.35;;;;;;;0.80;73.25;93096.53;1774701;80;21198;-77
2021/01/02 01:56:34;;;;;;;2.90;2.37;;;;;;;0.85;72.79;93103.73;1750574;80;21223;-77
2021/01/02 01:59:21;;;;;;;1.70;1.60;;;;;;;0.88;72.93;93092.35;1750253;80;21107;-76
2021/01/02 02:01:53;;;;;;;4.35;2.00;;;;;;;0.85;73.05;93078.88;1795224;79;21653;-76
2021/01/02 02:05:03;;;;;;;2.75;1.67;;;;;;;0.84;73.00;93095.50;1812561;79;21146;-75
2021/01/02 02:08:00;;;;;;;3.25;1.87;;;;;;;0.81;73.06;93078.00;1811371;79;21497;-76
2021/01/02 02:10:38;;;;;;;3.90;2.40;;;;;;;0.80;72.70;93090.61;1789100;79;21135;-75
2021/01/02 02:13:16;;;;;;;2.20;2.00;;;;;;;0.83;72.71;93101.17;1784901;79;21171;-77
2021/01/02 02:15:52;;;;;;;2.30;1.90;;;;;;;0.85;72.61;93111.77;1810212;79;21366;-75
2021/01/02 02:18:27;;;;;;;2.47;1.80;;;;;;;0.86;72.82;93095.14;1799000;79;21139;-75
2021/01/02 02:20:58;;;;;;;1.70;1.60;;;;;;;0.84;72.52;93099.52;1781396;79;21593;-76
2021/01/02 02:23:44;;;;;;;2.08;1.62;;;;;;;0.86;72.41;93099.94;1806537;78;21167;-76
2021/01/02 02:26:34;;;;;;;1.67;1.57;;;;;;;0.89;72.19;93114.55;1816178;78;21490;-76
2021/01/02 02:29:22;;;;;;;2.25;1.50;;;;;;;0.90;72.21;93116.09;1798797;78;21672;-76
2021/01/02 02:31:47;;;;;;;1.57;1.30;;;;;;;0.92;72.15;93111.19;1806233;78;21619;-76
2021/01/02 02:34:15;;;;;;;1.90;1.75;;;;;;;0.93;72.27;93112.73;1754309;78;21111;-77
2021/01/02 02:36:43;;;;;;;1.62;1.52;;;;;;;0.91;72.41;93101.61;1814574;79;21190;-76
2021/01/02 02:39:14;;;;;;;2.42;1.80;;;;;;;0.91;72.36;93103.72;1772859;78;21490;-76
2021/01/02 02:41:45;;;;;;;1.62;1.52;;;;;;;0.91;72.63;93109.64;1774295;79;22538;-76
2021/01/02 02:44:16;;;;;;;1.60;1.50;;;;;;;0.90;72.47;93111.55;1765562;79;21211;-76
2021/01/02 02:46:45;;;;;;;1.57;1.45;;;;;;;0.93;72.79;93108.72;1717878;82;21502;-75
2021/01/02 02:49:17;;;;;;;1.82;1.65;;;;;;;0.94;72.88;93106.26;1689564;82;21314;-75
2021/01/02 02:51:54;;;;;;;1.92;1.80;;;;;;;0.94;72.97;93107.06;1729812;82;21179;-76
2021/01/02 02:54:23;;;;;;;2.22;1.40;;;;;;;0.93;73.04;93105.48;1743779;81;21728;-77
2021/01/02 02:56:52;;;;;;;1.40;1.30;;;;;;;0.92;72.73;93106.61;1712176;81;21210;-75
2021/01/02 02:59:20;;;;;;;2.22;1.70;;;;;;;0.97;72.72;93101.56;1726061;82;21196;-76
2021/01/02 03:01:48;;;;;;;1.92;1.75;;;;;;;1.00;72.81;93100.11;1751695;81;21215;-76
2021/01/02 03:04:16;;;;;;;1.85;1.70;;;;;;;1.01;72.53;93103.00;1731661;80;21521;-77
2021/01/02 03:06:44;;;;;;;2.35;2.08;;;;;;;1.01;72.61;93101.66;1746232;82;22760;-78
2021/01/02 03:09:12;;;;;;;1.62;1.52;;;;;;;1.01;72.55;93110.47;1725258;82;21211;-77
2021/01/02 03:11:43;;;;;;;1.95;1.75;;;;;;;1.04;72.32;93105.77;1784380;80;21219;-77
2021/01/02 03:14:11;;;;;;;2.02;1.30;;;;;;;1.08;72.15;93106.64;1774342;80;21195;-77
2021/01/02 03:16:39;;;;;;;3.47;1.57;;;;;;;1.11;72.05;93100.61;1771113;81;21191;-78
2021/01/02 03:19:08;;;;;;;2.45;1.60;;;;;;;1.14;71.96;93116.56;1770046;80;21224;-77
2021/01/02 03:21:36;;;;;;;2.52;1.50;;;;;;;1.17;72.24;93100.58;1744782;82;21171;-77
2021/01/02 03:24:05;;;;;;;1.75;1.40;;;;;;;1.19;71.65;93114.95;1774659;80;21490;-76
2021/01/02 03:26:33;;;;;;;2.02;1.62;;;;;;;1.21;71.83;93119.42;1739950;80;21194;-77
2021/01/02 03:29:01;;;;;;;3.70;1.85;;;;;;;1.25;71.59;93119.52;1749055;81;21207;-77
2021/01/02 03:31:30;;;;;;;1.62;1.52;;;;;;;1.23;71.70;93131.89;1718769;81;21385;-77
2021/01/02 03:33:58;;;;;;;1.55;1.42;;;;;;;1.25;71.28;93118.18;1769451;81;21453;-78
2021/01/02 03:36:26;;;;;;;2.60;1.65;;;;;;;1.28;71.35;93110.77;1791191;78;21202;-77
2021/01/02 03:38:57;;;;;;;2.27;1.60;;;;;;;1.27;71.10;93127.41;1781072;80;21165;-76
2021/01/02 03:41:27;;;;;;;1.95;1.57;;;;;;;1.26;71.27;93125.09;1821314;78;21600;-76
2021/01/02 03:43:55;;;;;;;1.75;1.42;;;;;;;1.23;71.38;93119.84;1801494;78;21196;-76
2021/01/02 03:46:27;;;;;;;1.22;1.02;;;;;;;1.24;71.18;93134.02;1772258;80;21665;-76
2021/01/02 03:49:16;;;;;;;1.72;1.45;;;;;;;1.27;71.02;93114.02;1786702;80;21155;-76
2021/01/02 03:51:44;;;;;;;1.92;1.50;;;;;;;1.31;71.19;93128.28;1810043;79;21176;-75
2021/01/02 03:54:12;;;;;;;1.40;1.22;;;;;;;1.33;70.62;93131.41;1798588;79;21475;-76
2021/01/02 03:56:40;;;;;;;1.72;1.62;;;;;;;1.39;70.66;93122.00;1794452;79;21183;-76
2021/01/02 03:59:08;;;;;;;2.55;1.72;;;;;;;1.40;70.94;93126.23;1816565;77;21182;-75
2021/01/02 04:01:36;;;;;;;1.45;1.35;;;;;;;1.38;70.97;93123.10;1811935;78;21163;-74
2021/01/02 04:04:04;;;;;;;2.22;1.50;;;;;;;1.37;71.20;93131.50;1753661;81;21196;-78
2021/01/02 04:06:33;;;;;;;1.55;1.30;;;;;;;1.35;71.08;93131.83;1768001;80;21191;-76
2021/01/02 04:09:01;;;;;;;2.35;1.37;;;;;;;1.38;71.23;93131.70;1782065;80;21760;-75
2021/01/02 04:11:29;;;;;;;1.17;0.93;;;;;;;1.37;71.40;93138.20;1806143;78;21212;-75
2021/01/02 04:13:57;;;;;;;1.52;1.32;;;;;;;1.35;71.31;93141.20;1824011;77;21158;-75
2021/01/02 04:16:31;;;;;;;2.92;1.70;;;;;;;1.35;71.04;93145.78;1808434;79;21155;-75
2021/01/02 04:19:00;;;;;;;2.87;1.37;;;;;;;1.37;71.31;93147.57;1756527;81;21243;-75
2021/01/02 04:21:28;;;;;;;2.42;1.37;;;;;;;1.36;71.49;93146.80;1746980;81;21515;-75
2021/01/02 04:23:56;;;;;;;2.40;1.67;;;;;;;1.33;71.46;93144.02;1783524;78;21246;-75
2021/01/02 04:26:25;;;;;;;1.90;1.60;;;;;;;1.32;71.62;93156.64;1798684;79;21135;-76
2021/01/02 04:28:53;;;;;;;2.35;1.95;;;;;;;1.29;71.59;93156.55;1761636;80;21300;-76
2021/01/02 04:31:21;;;;;;;1.70;1.60;;;;;;;1.28;71.56;93158.45;1814313;77;21194;-76
2021/01/02 04:33:49;;;;;;;3.42;1.72;;;;;;;1.29;71.47;93160.56;1767848;78;21230;-76
2021/01/02 04:36:18;;;;;;;1.65;1.20;;;;;;;1.27;71.57;93164.91;1798157;79;21187;-75
2021/01/02 04:38:46;;;;;;;2.65;1.70;;;;;;;1.26;71.62;93162.02;1798882;79;21621;-76
2021/01/02 04:41:14;;;;;;;5.05;2.20;;;;;;;1.28;71.16;93157.65;1798524;79;21132;-76
2021/01/02 04:43:46;;;;;;;3.42;2.08;;;;;;;1.33;71.35;93164.89;1798156;79;21148;-76
2021/01/02 04:46:14;;;;;;;3.75;1.92;;;;;;;1.33;71.31;93164.12;1799097;79;22062;-76
2021/01/02 04:48:45;;;;;;;2.22;1.70;;;;;;;1.31;71.43;93173.82;1798635;79;21733;-76
2021/01/02 04:51:13;;;;;;;2.42;1.70;;;;;;;1.28;71.53;93166.48;1797200;78;21179;-76
2021/01/02 04:53:41;;;;;;;2.55;2.00;;;;;;;1.24;71.62;93170.95;1787036;78;21191;-76
2021/01/02 04:56:10;;;;;;;3.70;2.00;;;;;;;1.24;72.03;93174.19;1797815;79;21214;-76
2021/01/02 04:58:42;;;;;;;2.70;2.05;;;;;;;1.18;72.18;93171.77;1777580;80;21652;-76
2021/01/02 05:01:11;;;;;;;3.33;2.37;;;;;;;1.14;72.38;93175.48;1799161;79;21163;-76
2021/01/02 05:03:46;;;;;;;4.05;2.50;;;;;;;1.09;72.52;93180.52;1828565;77;22128;-76
2021/01/02 05:06:22;;;;;;;2.85;1.82;;;;;;;1.05;72.62;93169.47;1815701;78;21175;-76
2021/01/02 05:08:53;;;;;;;3.52;2.42;;;;;;;0.99;72.74;93174.30;1816645;78;21207;-77
2021/01/02 05:11:21;;;;;;;4.05;2.90;;;;;;;0.99;73.18;93186.92;1828690;78;21414;-76
2021/01/02 05:13:49;;;;;;;3.05;2.67;;;;;;;0.91;73.20;93184.04;1802849;79;21191;-76
2021/01/02 05:16:39;;;;;;;4.20;3.17;;;;;;;0.88;73.35;93189.29;1779758;79;21195;-77
2021/01/02 05:19:13;;;;;;;4.75;3.33;;;;;;;0.83;73.50;93190.31;1805257;79;21624;-77
2021/01/02 05:21:46;;;;;;;8.48;4.20;;;;;;;0.76;73.76;93188.00;1785224;79;21085;-77
2021/01/02 05:24:19;;;;;;;8.18;4.83;;;;;;;0.71;73.89;93193.00;1770064;80;21262;-77
2021/01/02 05:26:58;;;;;;;7.15;4.35;;;;;;;0.68;74.06;93196.38;1768659;80;21665;-76
2021/01/02 05:29:28;;;;;;;22.20;10.35;;;;;;;0.65;74.26;93213.88;1787459;80;21131;-76
2021/01/02 05:31:58;;;;;;;16.35;7.92;;;;;;;0.62;74.35;93218.56;1786973;80;21115;-77
2021/01/02 05:34:28;;;;;;;10.70;5.67;;;;;;;0.60;74.44;93208.77;1756301;81;21563;-77
2021/01/02 05:37:02;;;;;;;24.85;12.13;;;;;;;0.62;74.53;93206.52;1782694;80;22330;-76
2021/01/02 05:39:41;;;;;;;14.87;8.13;;;;;;;0.68;74.56;93219.13;1766720;80;21117;-77
2021/01/02 05:42:09;;;;;;;12.03;6.45;;;;;;;0.69;74.59;93227.37;1768981;80;21151;-76
2021/01/02 05:44:39;;;;;;;13.00;7.33;;;;;;;0.64;74.78;93224.91;1778761;80;21121;-77
2021/01/02 05:47:07;;;;;;;12.53;8.03;;;;;;;0.62;74.73;93229.83;1756372;81;21547;-76
2021/01/02 05:49:47;;;;;;;10.00;6.53;;;;;;;0.53;74.87;93236.65;1721071;81;22581;-76
2021/01/02 05:52:16;;;;;;;6.70;5.50;;;;;;;0.45;75.16;93237.52;1785101;80;21209;-76
2021/01/02 05:54:49;;;;;;;8.53;5.33;;;;;;;0.29;75.49;93239.32;1787362;80;21230;-76
2021/01/02 05:57:28;;;;;;;12.73;7.30;;;;;;;0.22;76.00;93232.63;1771128;80;21180;-77
2021/01/02 05:59:57;;;;;;;12.28;7.60;;;;;;;0.18;76.18;93234.41;1767190;80;21197;-76
2021/01/02 06:02:33;;;;;;;16.87;10.00;;;;;;;0.14;76.35;93234.08;1781078;80;21300;-78
2021/01/02 06:07:49;;;;;;;19.45;10.53;;;;;;;-0.05;76.94;93245.31;1696645;83;21196;-77
2021/01/02 06:10:17;;;;;;;15.03;8.58;;;;;;;-0.15;77.46;93239.05;1823327;77;21028;-77
2021/01/02 06:12:45;;;;;;;33.53;19.23;;;;;;;-0.21;78.09;93251.09;1786060;77;21188;-78
2021/01/02 06:15:15;;;;;;;20.85;13.15;;;;;;;-0.21;77.85;93249.19;1823076;77;21190;-77
2021/01/02 06:17:49;;;;;;;19.25;11.75;;;;;;;-0.26;78.03;93244.84;1821824;77;21155;-78
2021/01/02 06:20:16;;;;;;;12.13;7.00;;;;;;;-0.32;78.47;93251.50;1783285;80;21199;-78
2021/01/02 06:22:45;;;;;;;15.23;8.93;;;;;;;-0.34;79.10;93251.06;1777106;80;21176;-78
2021/01/02 06:25:13;;;;;;;18.05;11.18;;;;;;;-0.27;79.12;93253.95;1732893;81;21228;-78
2021/01/02 06:27:45;;;;;;;22.60;11.80;;;;;;;-0.22;78.83;93240.95;1782090;78;21387;-78
2021/01/02 06:30:18;;;;;;;31.70;16.50;;;;;;;-0.20;78.87;93246.73;1745795;79;21227;-78
2021/01/02 06:32:46;;;;;;;27.90;15.85;;;;;;;-0.19;78.79;93250.19;1766395;80;21614;-78
2021/01/02 06:35:19;;;;;;;19.50;10.25;;;;;;;-0.31;78.84;93257.63;1745820;77;21693;-79
2021/01/02 06:37:58;;;;;;;26.10;15.50;;;;;;;-0.41;79.73;93254.83;1839012;77;21218;-80
2021/01/02 06:40:40;;;;;;;25.32;13.70;;;;;;;-0.47;79.78;93246.79;1760024;77;21475;-78
2021/01/02 06:43:17;;;;;;;25.97;16.23;;;;;;;-0.48;79.73;93256.48;1820987;76;21126;-78
2021/01/02 06:45:48;;;;;;;34.78;18.62;;;;;;;-0.47;79.63;93250.02;1790529;78;21149;-78
2021/01/02 06:48:24;;;;;;;35.60;18.67;;;;;;;-0.49;79.50;93263.69;1795888;78;21625;-80
2021/01/02 06:50:57;;;;;;;23.62;12.28;;;;;;;-0.50;79.83;93270.14;1805136;78;21479;-76
2021/01/02 06:53:34;;;;;;;25.65;15.15;;;;;;;-0.55;80.12;93279.71;1827825;77;21434;-77
2021/01/02 06:56:16;;;;;;;25.80;14.00;;;;;;;-0.55;80.36;93281.82;1819977;77;21190;-77
2021/01/02 06:58:49;;;;;;;29.23;17.65;;;;;;;-0.55;80.52;93287.16;1842766;77;21175;-77
2021/01/02 07:01:26;;;;;;;39.30;22.98;;;;;;;-0.58;80.67;93285.70;1833107;77;21120;-81
2021/01/02 07:03:56;;;;;;;46.13;24.23;;;;;;;-0.52;80.98;93292.41;1814656;77;21215;-79
2021/01/02 07:06:36;;;;;;;52.88;26.60;;;;;;;-0.12;81.54;93287.28;1810167;77;21253;-78
2021/01/02 07:09:16;;;;;;;33.30;17.00;;;;;;;0.45;81.03;93292.36;1767326;79;21166;-78
2021/01/02 07:11:47;;;;;;;20.77;11.30;;;;;;;1.08;79.57;93292.76;1815774;77;21100;-78
2021/01/02 07:14:23;;;;;;;16.55;10.30;;;;;;;1.56;78.49;93288.94;1811373;79;21345;-78
2021/01/02 07:17:01;;;;;;;15.38;8.90;;;;;;;2.15;76.59;93290.33;1774187;79;22152;-78
2021/01/02 07:19:44;;;;;;;16.97;10.58;;;;;;;2.73;74.97;93292.47;1789537;78;21270;-76
2021/01/02 07:22:21;;;;;;;17.60;10.80;;;;;;;3.18;72.16;93294.43;1782824;80;21223;-77
2021/01/02 07:25:00;;;;;;;17.77;10.78;;;;;;;3.34;70.62;93293.23;1798207;79;21211;-78
2021/01/02 07:27:35;;;;;;;28.05;17.23;;;;;;;3.44;68.52;93299.98;1755226;80;21222;-79
2021/01/02 07:30:12;;;;;;;32.20;19.05;;;;;;;3.44;67.16;93298.63;1734595;81;21104;-79
2021/01/02 07:32:43;;;;;;;19.60;12.03;;;;;;;3.54;67.10;93308.84;1720969;81;21207;-78
2021/01/02 07:35:12;;;;;;;23.38;13.28;;;;;;;3.63;65.46;93312.66;1752981;80;21520;-78
2021/01/02 07:37:45;;;;;;;25.35;15.40;;;;;;;3.52;65.31;93317.81;1801323;78;21103;-77
2021/01/02 07:40:15;;;;;;;24.23;14.80;;;;;;;3.39;65.75;93317.73;1762547;79;21099;-78
2021/01/02 07:42:51;;;;;;;31.60;19.82;;;;;;;3.48;66.36;93324.25;1725126;81;21107;-78
2021/01/02 07:45:24;;;;;;;24.47;15.55;;;;;;;3.65;65.71;93331.92;1763948;80;21206;-77
2021/01/02 07:47:57;;;;;;;22.98;13.53;;;;;;;4.08;65.04;93317.37;1765260;79;21602;-79
2021/01/02 07:50:30;;;;;;;31.37;18.75;;;;;;;4.08;65.04;93317.37;1809304;79;28093;-79
2021/01/02 07:53:00;;;;;;;47.00;27.77;;;;;;;4.13;65.28;93314.38;1795945;79;21458;-78
2021/01/02 07:55:31;;;;;;;32.30;20.05;;;;;;;4.24;66.18;93323.22;1828537;77;21616;-78
2021/01/02 07:58:00;;;;;;;18.95;11.15;;;;;;;4.61;65.89;93322.92;1845246;77;21323;-78
2021/01/02 08:00:28;;;;;;;11.85;8.05;;;;;;;4.98;64.44;93320.23;1821426;77;21162;-78
2021/01/02 08:03:04;;;;;;;9.40;6.53;;;;;;;5.32;64.10;93316.50;1801825;76;21136;-78
2021/01/02 08:05:32;;;;;;;;;;;;;;;5.71;62.45;93324.33;1844011;77;21091;-77
2021/01/02 08:08:01;;;;;;;24.75;16.75;;;;;;;6.11;61.75;93326.20;1827878;77;20855;-77
2021/01/02 08:10:30;;;;;;;28.50;20.08;;;;;;;6.48;59.27;93332.38;1793224;79;22261;-76
2021/01/02 08:13:02;;;;;;;24.18;16.57;;;;;;;6.46;57.96;93334.66;1796361;77;21041;-79
2021/01/02 08:15:35;;;;;;;24.05;16.85;;;;;;;6.38;57.90;93341.72;1791433;79;21202;-79
2021/01/02 08:18:09;;;;;;;21.37;15.40;;;;;;;6.62;57.39;93337.16;1767894;80;21132;-76
2021/01/02 08:20:37;;;;;;;21.48;15.20;;;;;;;6.86;56.72;93340.45;1788757;80;20966;-79
2021/01/02 08:23:09;;;;;;;22.22;15.48;;;;;;;6.88;55.39;93337.56;1809573;79;21193;-78
2021/01/02 08:25:38;;;;;;;22.30;14.95;;;;;;;6.75;56.38;93339.00;1768620;79;21148;-78
2021/01/02 08:28:08;;;;;;;29.80;19.00;;;;;;;6.78;56.24;93335.56;1801141;79;21116;-77
2021/01/02 08:30:37;;;;;;;28.20;18.85;;;;;;;7.00;55.71;93346.76;1756589;80;21120;-78
2021/01/02 08:33:06;;;;;;;23.65;15.83;;;;;;;7.32;55.25;93348.92;1797961;78;21112;-77
2021/01/02 08:35:39;;;;;;;24.40;16.45;;;;;;;7.48;54.01;93350.77;1825147;78;22541;-78
2021/01/02 08:38:11;;;;;;;25.77;18.42;;;;;;;7.41;54.23;93355.34;1817464;76;21113;-78
2021/01/02 08:40:44;;;;;;;19.85;13.60;;;;;;;7.53;54.36;93349.07;1847447;76;21379;-77
2021/01/02 08:43:24;;;;;;;19.73;10.88;;;;;;;7.71;53.21;93351.89;1770223;80;21118;-77
2021/01/02 08:46:00;;;;;;;13.53;9.98;;;;;;;7.81;53.73;93344.97;1756214;80;21135;-77
2021/01/02 08:48:29;;;;;;;15.40;11.48;;;;;;;8.09;53.02;93350.34;1756124;81;21263;-77
2021/01/02 08:50:58;;;;;;;22.32;15.50;;;;;;;8.38;52.12;93355.30;1782132;80;21124;-76
2021/01/02 08:53:32;;;;;;;10.00;7.12;;;;;;;8.45;52.14;93356.67;1810192;78;21238;-75
2021/01/02 08:56:26;;;;;;;15.00;10.10;;;;;;;8.37;50.83;93359.14;1779755;79;21238;-76
2021/01/02 08:58:54;;;;;;;9.00;6.15;;;;;;;7.97;51.68;93356.84;1798768;79;21673;-77
2021/01/02 09:01:22;;;;;;;10.90;7.55;;;;;;;7.39;52.39;93350.91;1808767;76;21265;-75
2021/01/02 09:03:50;;;;;;;24.07;15.55;;;;;;;6.82;53.99;93348.53;1852093;76;21705;-76
2021/01/02 09:06:21;;;;;;;17.02;11.12;;;;;;;6.27;55.74;93357.23;1764849;81;21185;-75
2021/01/02 09:09:07;;;;;;;16.97;10.25;;;;;;;6.03;57.17;93357.73;1765625;79;21132;-77
2021/01/02 09:11:48;;;;;;;12.25;8.40;;;;;;;5.90;57.39;93366.59;1807519;79;21152;-76
2021/01/02 09:14:16;;;;;;;10.58;7.60;;;;;;;5.83;57.80;93362.48;1749863;81;21356;-77
2021/01/02 09:17:07;;;;;;;11.95;7.22;;;;;;;5.69;57.75;93356.89;1744913;81;21139;-77
2021/01/02 09:19:36;;;;;;;11.57;8.25;;;;;;;5.40;58.80;93357.83;1764795;81;21506;-77
2021/01/02 09:22:15;;;;;;;13.30;8.68;;;;;;;5.05;59.82;93368.86;1763043;80;21098;-77
2021/01/02 09:24:44;;;;;;;10.65;7.70;;;;;;;4.72;60.79;93365.42;1802119;76;21098;-77
2021/01/02 09:27:11;;;;;;;12.28;7.90;;;;;;;4.33;62.09;93355.52;1854505;77;22689;-77
2021/01/02 09:29:39;;;;;;;11.97;7.85;;;;;;;4.12;63.40;93360.50;1777188;77;21242;-77
2021/01/02 09:32:11;;;;;;;11.30;7.72;;;;;;;3.99;63.87;93364.48;1782107;79;21116;-76
2021/01/02 09:34:39;;;;;;;9.95;6.97;;;;;;;3.78;64.60;93365.59;1786034;79;21123;-77
2021/01/02 09:37:06;;;;;;;12.78;7.12;;;;;;;3.58;65.27;93361.34;1764394;79;21461;-74
2021/01/02 09:39:34;;;;;;;8.50;5.85;;;;;;;3.45;65.97;93357.20;1717157;81;21216;-75
2021/01/02 09:42:02;;;;;;;9.78;6.30;;;;;;;3.35;66.48;93361.23;1751995;81;21163;-75
2021/01/02 09:44:34;;;;;;;11.00;6.90;;;;;;;3.30;66.86;93366.30;1840871;77;21139;-74
2021/01/02 09:47:02;;;;;;;8.23;5.70;;;;;;;3.27;67.42;93360.84;1870857;76;21566;-76
2021/01/02 09:49:30;;;;;;;8.18;6.20;;;;;;;3.31;67.28;93367.88;1803894;78;21117;-75
2021/01/02 09:51:59;;;;;;;12.10;6.47;;;;;;;3.33;67.53;93363.48;1851771;77;22158;-75
2021/01/02 09:54:27;;;;;;;9.68;5.45;;;;;;;3.32;67.26;93354.64;1759688;81;21658;-75
2021/01/02 09:56:59;;;;;;;7.17;4.80;;;;;;;3.31;67.44;93359.00;1813525;78;21905;-75
2021/01/02 09:59:26;;;;;;;9.48;6.03;;;;;;;3.33;67.79;93350.05;1816371;78;21115;-75
2021/01/02 10:01:54;;;;;;;8.70;5.40;;;;;;;3.36;68.21;93352.03;1765060;80;21091;-76
2021/01/02 10:04:21;;;;;;;8.40;4.53;;;;;;;3.33;67.86;93354.08;1778435;78;21371;-75
2021/01/02 10:06:49;;;;;;;9.28;4.95;;;;;;;3.34;68.07;93356.97;1767437;80;21151;-76
2021/01/02 10:09:17;;;;;;;7.90;5.35;;;;;;;3.29;67.98;93352.65;1802289;79;21124;-76
2021/01/02 10:11:45;;;;;;;8.48;4.97;;;;;;;3.30;68.65;93350.17;1770629;80;21098;-77
2021/01/02 10:14:13;;;;;;;5.83;4.08;;;;;;;3.32;68.59;93348.49;1800414;79;21097;-76
2021/01/02 10:16:41;;;;;;;5.33;3.65;;;;;;;3.31;69.04;93342.88;1776117;80;21350;-75
2021/01/02 10:19:10;;;;;;;7.42;5.20;;;;;;;3.28;69.38;93345.73;1809275;78;21159;-76
2021/01/02 10:21:37;;;;;;;7.78;4.62;;;;;;;3.33;69.13;93346.78;1820126;77;21159;-77
2021/01/02 10:24:06;;;;;;;10.20;6.28;;;;;;;3.41;69.03;93343.69;1843739;77;21260;-78
2021/01/02 10:26:34;;;;;;;10.10;5.50;;;;;;;3.45;68.58;93346.45;1777549;77;21539;-76
2021/01/02 10:29:04;;;;;;;10.95;6.72;;;;;;;3.47;68.47;93342.86;1747626;79;21362;-76
2021/01/02 10:31:33;;;;;;;20.25;11.60;;;;;;;3.56;68.80;93334.79;1749233;78;21131;-76
2021/01/02 10:34:02;;;;;;;32.03;19.32;;;;;;;3.71;69.50;93337.78;1836056;78;21345;-76
2021/01/02 10:36:29;;;;;;;12.85;8.55;;;;;;;3.77;69.79;93333.69;1829616;77;21080;-77
2021/01/02 10:38:56;;;;;;;7.60;5.35;;;;;;;3.90;69.28;93335.86;1794536;79;21125;-77
2021/01/02 10:41:24;;;;;;;9.50;7.05;;;;;;;4.06;68.32;93327.73;1815424;78;21375;-77
2021/01/02 10:43:52;;;;;;;12.75;6.37;;;;;;;4.24;67.72;93323.22;1791672;77;21381;-77
2021/01/02 10:46:19;;;;;;;5.75;4.40;;;;;;;4.39;67.45;93319.08;1819828;77;21163;-76
2021/01/02 10:48:47;;;;;;;12.00;7.67;;;;;;;4.53;66.21;93321.82;1769122;80;21502;-77
2021/01/02 10:51:17;;;;;;;12.28;8.18;;;;;;;4.61;65.89;93317.53;1721903;83;21524;-76
2021/01/02 10:53:44;;;;;;;8.25;5.25;;;;;;;4.67;66.18;93311.87;1739974;81;21202;-77
2021/01/02 10:56:14;;;;;;;6.15;4.40;;;;;;;4.75;65.59;93304.88;1744118;80;21460;-76
2021/01/02 10:58:44;;;;;;;6.92;4.37;;;;;;;4.82;64.98;93302.88;1744904;80;21154;-78
2021/01/02 11:01:12;;;;;;;4.53;3.80;;;;;;;4.82;64.98;93302.88;1744731;81;21384;-75
2021/01/02 11:03:39;;;;;;;4.90;3.72;;;;;;;4.81;65.20;93301.30;1745468;81;21170;-75
2021/01/02 11:06:09;;;;;;;6.42;3.62;;;;;;;4.86;64.18;93289.66;1773672;79;21376;-75
2021/01/02 11:08:37;;;;;;;6.47;4.08;;;;;;;4.86;64.18;93289.66;1827600;78;21186;-76
2021/01/02 11:11:04;;;;;;;4.92;3.20;;;;;;;4.88;64.38;93292.75;1805631;77;22023;-76
2021/01/02 11:13:33;;;;;;;4.12;3.72;;;;;;;4.92;64.40;93284.72;1806202;77;21126;-77
2021/01/02 11:16:00;;;;;;;3.70;2.90;;;;;;;4.95;63.75;93290.73;1795645;77;21473;-77
2021/01/02 11:18:29;;;;;;;5.28;3.47;;;;;;;5.01;63.35;93295.27;1745291;82;22630;-77
2021/01/02 11:20:57;;;;;;;5.12;3.37;;;;;;;5.03;63.76;93283.54;1781250;80;21481;-76
2021/01/02 11:23:26;;;;;;;9.18;4.00;;;;;;;5.13;63.46;93276.76;1778422;79;21191;-76
2021/01/02 11:25:53;;;;;;;5.35;3.75;;;;;;;5.19;63.00;93271.24;1779710;79;22206;-77
2021/01/02 11:28:21;;;;;;;8.23;4.08;;;;;;;5.19;63.00;93271.24;1789615;79;21168;-77
2021/01/02 11:30:50;;;;;;;8.63;4.60;;;;;;;5.22;62.68;93274.56;1837777;77;22772;-76
2021/01/02 11:33:17;;;;;;;5.35;3.58;;;;;;;5.21;62.96;93277.06;1798024;79;21527;-76
2021/01/02 11:35:45;;;;;;;3.50;3.10;;;;;;;5.21;62.96;93277.06;1817131;78;21161;-77
2021/01/02 11:38:13;;;;;;;5.92;3.83;;;;;;;5.24;62.48;93274.41;1812740;77;21170;-76
2021/01/02 11:40:40;;;;;;;6.10;4.45;;;;;;;5.25;62.17;93275.19;1812568;75;21475;-79
2021/01/02 11:43:07;;;;;;;5.97;4.40;;;;;;;5.33;62.43;93278.95;1821680;77;21485;-78
2021/01/02 11:45:35;;;;;;;10.43;7.47;;;;;;;5.40;61.80;93273.46;1743946;81;21012;-77
2021/01/02 11:48:03;;;;;;;6.40;3.65;;;;;;;5.47;62.25;93275.67;1786000;80;21186;-78
2021/01/02 11:50:31;;;;;;;14.85;9.65;;;;;;;5.50;62.59;93274.17;1764815;80;21162;-77
2021/01/02 11:52:58;;;;;;;9.25;4.62;;;;;;;5.53;62.32;93271.53;1790793;78;21125;-78
2021/01/02 11:55:25;;;;;;;7.92;5.42;;;;;;;5.47;62.42;93269.52;1855696;76;22288;-77
2021/01/02 11:57:53;;;;;;;13.50;7.72;;;;;;;5.47;62.42;93269.52;1743082;82;21276;-78
2021/01/02 12:00:23;;;;;;;11.12;6.05;;;;;;;5.48;62.84;93275.10;1793666;79;21212;-77
2021/01/02 12:02:50;;;;;;;10.58;6.37;;;;;;;5.49;62.64;93273.95;1804211;79;21576;-77
2021/01/02 12:05:22;;;;;;;10.20;5.17;;;;;;;5.47;62.52;93267.59;1807750;77;21223;-78